sensor_id;sensor_type;location;lat;lon;timestamp;P1;durP1;ratioP1;P2;durP2;ratioP2
4182;SDS011;2105;52.300;9.182;2023-05-02T00:02:12;8.50;;;7.60;;
4182;SDS011;2105;52.300;9.182;2023-05-02T00:04:40;18.10;;;8.37;;
4182;SDS011;2105;52.300;9.182;2023-05-02T00:07:09;11.20;;;8.43;;
4182;SDS011;2105;52.300;9.182;2023-05-02T00:09:36;11.33;;;8.73;;
4182;SDS011;2105;52.300;9.182;2023-05-02T00:12:03;10.67;;;8.80;;
4182;SDS011;2105;52.300;9.182;2023-05-02T00:14:30;12.17;;;9.67;;
4182;SDS011;2105;52.300;9.182;2023-05-02T00:16:57;11.93;;;8.60;;
4182;SDS011;2105;52.300;9.182;2023-05-02T00:19:23;12.27;;;9.83;;
4182;SDS011;2105;52.300;9.182;2023-05-02T00:21:52;9.50;;;8.50;;
4182;SDS011;2105;52.300;9.182;2023-05-02T00:24:18;11.93;;;8.57;;
4182;SDS011;2105;52.300;9.182;2023-05-02T00:26:45;10.23;;;9.13;;
4182;SDS011;2105;52.300;9.182;2023-05-02T00:29:12;15.37;;;11.57;;
4182;SDS011;2105;52.300;9.182;2023-05-02T00:31:39;19.27;;;11.87;;
4182;SDS011;2105;52.300;9.182;2023-05-02T00:34:06;16.43;;;11.93;;
4182;SDS011;2105;52.300;9.182;2023-05-02T00:36:33;15.23;;;12.80;;
4182;SDS011;2105;52.300;9.182;2023-05-02T00:39:01;15.47;;;12.60;;
4182;SDS011;2105;52.300;9.182;2023-05-02T00:41:28;16.53;;;14.17;;
4182;SDS011;2105;52.300;9.182;2023-05-02T00:43:55;17.17;;;14.63;;
4182;SDS011;2105;52.300;9.182;2023-05-02T00:46:22;22.67;;;15.63;;
4182;SDS011;2105;52.300;9.182;2023-05-02T00:48:49;20.67;;;16.13;;
4182;SDS011;2105;52.300;9.182;2023-05-02T00:51:16;20.57;;;16.30;;
4182;SDS011;2105;52.300;9.182;2023-05-02T00:53:43;22.90;;;17.00;;
4182;SDS011;2105;52.300;9.182;2023-05-02T00:56:12;26.47;;;18.20;;
4182;SDS011;2105;52.300;9.182;2023-05-02T00:58:39;19.90;;;16.70;;
4182;SDS011;2105;52.300;9.182;2023-05-02T01:01:09;21.83;;;16.80;;
4182;SDS011;2105;52.300;9.182;2023-05-02T01:03:44;19.80;;;16.70;;
4182;SDS011;2105;52.300;9.182;2023-05-02T01:06:22;24.60;;;18.60;;
4182;SDS011;2105;52.300;9.182;2023-05-02T01:08:59;21.20;;;17.83;;
4182;SDS011;2105;52.300;9.182;2023-05-02T01:11:46;26.60;;;18.07;;
4182;SDS011;2105;52.300;9.182;2023-05-02T01:14:17;23.00;;;19.17;;
4182;SDS011;2105;52.300;9.182;2023-05-02T01:16:45;26.23;;;18.00;;
4182;SDS011;2105;52.300;9.182;2023-05-02T01:19:18;22.27;;;18.27;;
4182;SDS011;2105;52.300;9.182;2023-05-02T01:21:50;24.80;;;19.03;;
4182;SDS011;2105;52.300;9.182;2023-05-02T01:24:21;24.53;;;19.13;;
4182;SDS011;2105;52.300;9.182;2023-05-02T01:26:55;33.83;;;21.10;;
4182;SDS011;2105;52.300;9.182;2023-05-02T01:29:31;29.03;;;21.60;;
4182;SDS011;2105;52.300;9.182;2023-05-02T01:31:59;29.20;;;22.60;;
4182;SDS011;2105;52.300;9.182;2023-05-02T01:34:27;27.60;;;21.83;;
4182;SDS011;2105;52.300;9.182;2023-05-02T01:36:55;29.80;;;21.90;;
4182;SDS011;2105;52.300;9.182;2023-05-02T01:39:23;32.47;;;22.63;;
4182;SDS011;2105;52.300;9.182;2023-05-02T01:41:52;32.37;;;23.47;;
4182;SDS011;2105;52.300;9.182;2023-05-02T01:44:22;31.73;;;22.20;;
4182;SDS011;2105;52.300;9.182;2023-05-02T01:46:51;30.73;;;22.40;;
4182;SDS011;2105;52.300;9.182;2023-05-02T01:49:19;35.83;;;23.50;;
4182;SDS011;2105;52.300;9.182;2023-05-02T01:51:48;33.40;;;23.37;;
4182;SDS011;2105;52.300;9.182;2023-05-02T01:54:17;35.10;;;25.00;;
4182;SDS011;2105;52.300;9.182;2023-05-02T01:56:45;32.00;;;23.40;;
4182;SDS011;2105;52.300;9.182;2023-05-02T01:59:14;34.60;;;24.47;;
4182;SDS011;2105;52.300;9.182;2023-05-02T02:01:44;39.17;;;24.50;;
4182;SDS011;2105;52.300;9.182;2023-05-02T02:04:13;35.93;;;23.50;;
4182;SDS011;2105;52.300;9.182;2023-05-02T02:06:43;36.50;;;25.53;;
4182;SDS011;2105;52.300;9.182;2023-05-02T02:09:12;40.00;;;26.20;;
4182;SDS011;2105;52.300;9.182;2023-05-02T02:11:41;36.27;;;25.03;;
4182;SDS011;2105;52.300;9.182;2023-05-02T02:14:11;34.23;;;25.10;;
4182;SDS011;2105;52.300;9.182;2023-05-02T02:16:43;36.17;;;24.47;;
4182;SDS011;2105;52.300;9.182;2023-05-02T02:19:12;32.50;;;23.90;;
4182;SDS011;2105;52.300;9.182;2023-05-02T02:21:41;32.33;;;24.10;;
4182;SDS011;2105;52.300;9.182;2023-05-02T02:24:09;32.40;;;23.40;;
4182;SDS011;2105;52.300;9.182;2023-05-02T02:26:38;33.10;;;22.90;;
4182;SDS011;2105;52.300;9.182;2023-05-02T02:29:05;34.87;;;23.70;;
4182;SDS011;2105;52.300;9.182;2023-05-02T02:31:31;34.63;;;24.03;;
4182;SDS011;2105;52.300;9.182;2023-05-02T02:34:00;37.73;;;25.00;;
4182;SDS011;2105;52.300;9.182;2023-05-02T02:36:30;35.43;;;24.00;;
4182;SDS011;2105;52.300;9.182;2023-05-02T02:39:03;33.33;;;24.90;;
4182;SDS011;2105;52.300;9.182;2023-05-02T02:41:41;37.23;;;24.23;;
4182;SDS011;2105;52.300;9.182;2023-05-02T02:44:17;34.90;;;23.80;;
4182;SDS011;2105;52.300;9.182;2023-05-02T02:46:53;33.27;;;23.10;;
4182;SDS011;2105;52.300;9.182;2023-05-02T02:49:30;32.80;;;22.90;;
4182;SDS011;2105;52.300;9.182;2023-05-02T02:52:04;33.37;;;23.07;;
4182;SDS011;2105;52.300;9.182;2023-05-02T02:54:37;34.80;;;24.63;;
4182;SDS011;2105;52.300;9.182;2023-05-02T02:57:13;36.23;;;24.63;;
4182;SDS011;2105;52.300;9.182;2023-05-02T02:59:45;37.97;;;24.03;;
4182;SDS011;2105;52.300;9.182;2023-05-02T03:02:16;36.30;;;23.07;;
4182;SDS011;2105;52.300;9.182;2023-05-02T03:04:44;37.60;;;23.50;;
4182;SDS011;2105;52.300;9.182;2023-05-02T03:07:14;36.80;;;24.40;;
4182;SDS011;2105;52.300;9.182;2023-05-02T03:09:41;33.87;;;23.80;;
4182;SDS011;2105;52.300;9.182;2023-05-02T03:12:08;35.53;;;23.73;;
4182;SDS011;2105;52.300;9.182;2023-05-02T03:14:35;35.80;;;23.87;;
4182;SDS011;2105;52.300;9.182;2023-05-02T03:17:02;32.20;;;22.10;;
4182;SDS011;2105;52.300;9.182;2023-05-02T03:19:29;34.30;;;23.43;;
4182;SDS011;2105;52.300;9.182;2023-05-02T03:21:56;36.77;;;23.10;;
4182;SDS011;2105;52.300;9.182;2023-05-02T03:24:29;38.90;;;22.40;;
4182;SDS011;2105;52.300;9.182;2023-05-02T03:26:55;38.50;;;23.40;;
4182;SDS011;2105;52.300;9.182;2023-05-02T03:29:23;34.47;;;22.40;;
4182;SDS011;2105;52.300;9.182;2023-05-02T03:31:50;38.57;;;22.47;;
4182;SDS011;2105;52.300;9.182;2023-05-02T03:34:17;36.50;;;23.90;;
4182;SDS011;2105;52.300;9.182;2023-05-02T03:36:45;38.00;;;22.73;;
4182;SDS011;2105;52.300;9.182;2023-05-02T03:39:12;33.60;;;23.17;;
4182;SDS011;2105;52.300;9.182;2023-05-02T03:41:41;37.43;;;25.20;;
4182;SDS011;2105;52.300;9.182;2023-05-02T03:44:08;33.20;;;23.10;;
4182;SDS011;2105;52.300;9.182;2023-05-02T03:46:34;39.93;;;25.10;;
4182;SDS011;2105;52.300;9.182;2023-05-02T03:49:01;32.83;;;22.67;;
4182;SDS011;2105;52.300;9.182;2023-05-02T03:51:28;35.63;;;23.73;;
4182;SDS011;2105;52.300;9.182;2023-05-02T03:53:54;38.20;;;24.50;;
4182;SDS011;2105;52.300;9.182;2023-05-02T03:56:22;34.30;;;23.70;;
4182;SDS011;2105;52.300;9.182;2023-05-02T03:58:50;36.53;;;23.60;;
4182;SDS011;2105;52.300;9.182;2023-05-02T04:01:17;37.87;;;24.30;;
4182;SDS011;2105;52.300;9.182;2023-05-02T04:03:44;34.23;;;23.13;;
4182;SDS011;2105;52.300;9.182;2023-05-02T04:06:10;34.10;;;23.73;;
4182;SDS011;2105;52.300;9.182;2023-05-02T04:08:38;33.30;;;23.70;;
4182;SDS011;2105;52.300;9.182;2023-05-02T04:11:04;41.53;;;24.40;;
4182;SDS011;2105;52.300;9.182;2023-05-02T04:13:31;34.40;;;23.80;;
4182;SDS011;2105;52.300;9.182;2023-05-02T04:15:59;37.90;;;23.03;;
4182;SDS011;2105;52.300;9.182;2023-05-02T04:18:26;35.70;;;22.20;;
4182;SDS011;2105;52.300;9.182;2023-05-02T04:20:52;40.07;;;24.10;;
4182;SDS011;2105;52.300;9.182;2023-05-02T04:23:19;39.20;;;23.20;;
4182;SDS011;2105;52.300;9.182;2023-05-02T04:25:50;35.13;;;22.43;;
4182;SDS011;2105;52.300;9.182;2023-05-02T04:28:17;39.70;;;23.20;;
4182;SDS011;2105;52.300;9.182;2023-05-02T04:30:52;42.00;;;23.10;;
4182;SDS011;2105;52.300;9.182;2023-05-02T04:33:20;38.27;;;22.10;;
4182;SDS011;2105;52.300;9.182;2023-05-02T04:35:48;32.23;;;19.87;;
4182;SDS011;2105;52.300;9.182;2023-05-02T04:38:15;33.57;;;21.70;;
4182;SDS011;2105;52.300;9.182;2023-05-02T04:40:41;37.07;;;19.73;;
4182;SDS011;2105;52.300;9.182;2023-05-02T04:43:08;45.77;;;20.47;;
4182;SDS011;2105;52.300;9.182;2023-05-02T04:45:35;33.63;;;20.37;;
4182;SDS011;2105;52.300;9.182;2023-05-02T04:48:02;29.53;;;18.13;;
4182;SDS011;2105;52.300;9.182;2023-05-02T04:50:30;33.17;;;18.30;;
4182;SDS011;2105;52.300;9.182;2023-05-02T04:52:57;24.50;;;17.23;;
4182;SDS011;2105;52.300;9.182;2023-05-02T04:55:24;27.60;;;17.53;;
4182;SDS011;2105;52.300;9.182;2023-05-02T04:57:51;24.00;;;16.50;;
4182;SDS011;2105;52.300;9.182;2023-05-02T05:00:18;26.23;;;16.67;;
4182;SDS011;2105;52.300;9.182;2023-05-02T05:02:45;26.00;;;16.40;;
4182;SDS011;2105;52.300;9.182;2023-05-02T05:05:12;24.67;;;16.17;;
4182;SDS011;2105;52.300;9.182;2023-05-02T05:07:40;20.63;;;10.57;;
4182;SDS011;2105;52.300;9.182;2023-05-02T05:10:07;12.97;;;9.63;;
4182;SDS011;2105;52.300;9.182;2023-05-02T05:12:36;9.57;;;8.50;;
4182;SDS011;2105;52.300;9.182;2023-05-02T05:15:03;10.00;;;8.20;;
4182;SDS011;2105;52.300;9.182;2023-05-02T05:17:30;11.30;;;7.97;;
4182;SDS011;2105;52.300;9.182;2023-05-02T05:19:57;12.03;;;8.27;;
4182;SDS011;2105;52.300;9.182;2023-05-02T05:22:24;12.73;;;7.60;;
4182;SDS011;2105;52.300;9.182;2023-05-02T05:24:52;11.53;;;7.73;;
4182;SDS011;2105;52.300;9.182;2023-05-02T05:27:20;18.47;;;8.67;;
4182;SDS011;2105;52.300;9.182;2023-05-02T05:29:47;16.10;;;9.00;;
4182;SDS011;2105;52.300;9.182;2023-05-02T05:32:14;17.10;;;8.57;;
4182;SDS011;2105;52.300;9.182;2023-05-02T05:34:40;22.03;;;9.17;;
4182;SDS011;2105;52.300;9.182;2023-05-02T05:37:07;17.57;;;8.93;;
4182;SDS011;2105;52.300;9.182;2023-05-02T05:39:35;21.53;;;10.00;;
4182;SDS011;2105;52.300;9.182;2023-05-02T05:42:06;22.27;;;10.07;;
4182;SDS011;2105;52.300;9.182;2023-05-02T05:44:34;21.00;;;11.60;;
4182;SDS011;2105;52.300;9.182;2023-05-02T05:47:01;23.77;;;12.97;;
4182;SDS011;2105;52.300;9.182;2023-05-02T05:49:27;30.10;;;13.20;;
4182;SDS011;2105;52.300;9.182;2023-05-02T05:51:54;22.03;;;13.40;;
4182;SDS011;2105;52.300;9.182;2023-05-02T05:54:21;32.63;;;14.30;;
4182;SDS011;2105;52.300;9.182;2023-05-02T05:56:48;27.10;;;14.50;;
4182;SDS011;2105;52.300;9.182;2023-05-02T05:59:16;30.80;;;15.20;;
4182;SDS011;2105;52.300;9.182;2023-05-02T06:01:42;22.97;;;13.33;;
4182;SDS011;2105;52.300;9.182;2023-05-02T06:04:10;26.43;;;13.77;;
4182;SDS011;2105;52.300;9.182;2023-05-02T06:06:36;23.30;;;13.53;;
4182;SDS011;2105;52.300;9.182;2023-05-02T06:09:03;27.73;;;14.57;;
4182;SDS011;2105;52.300;9.182;2023-05-02T06:11:30;32.87;;;11.83;;
4182;SDS011;2105;52.300;9.182;2023-05-02T06:13:56;20.93;;;11.00;;
4182;SDS011;2105;52.300;9.182;2023-05-02T06:16:24;19.20;;;11.47;;
4182;SDS011;2105;52.300;9.182;2023-05-02T06:18:51;28.30;;;12.10;;
4182;SDS011;2105;52.300;9.182;2023-05-02T06:21:18;32.40;;;13.03;;
4182;SDS011;2105;52.300;9.182;2023-05-02T06:23:45;23.00;;;12.53;;
4182;SDS011;2105;52.300;9.182;2023-05-02T06:26:11;25.93;;;12.37;;
4182;SDS011;2105;52.300;9.182;2023-05-02T06:28:39;25.50;;;14.27;;
4182;SDS011;2105;52.300;9.182;2023-05-02T06:31:06;20.37;;;13.13;;
4182;SDS011;2105;52.300;9.182;2023-05-02T06:33:34;29.30;;;14.10;;
4182;SDS011;2105;52.300;9.182;2023-05-02T06:36:01;22.87;;;13.07;;
4182;SDS011;2105;52.300;9.182;2023-05-02T06:38:28;22.90;;;14.07;;
4182;SDS011;2105;52.300;9.182;2023-05-02T06:40:55;21.00;;;14.30;;
4182;SDS011;2105;52.300;9.182;2023-05-02T06:43:22;29.60;;;14.13;;
4182;SDS011;2105;52.300;9.182;2023-05-02T06:45:51;27.20;;;14.87;;
4182;SDS011;2105;52.300;9.182;2023-05-02T06:48:18;26.13;;;14.53;;
4182;SDS011;2105;52.300;9.182;2023-05-02T06:50:46;42.07;;;16.43;;
4182;SDS011;2105;52.300;9.182;2023-05-02T06:53:13;28.70;;;14.40;;
4182;SDS011;2105;52.300;9.182;2023-05-02T06:55:40;29.37;;;14.50;;
4182;SDS011;2105;52.300;9.182;2023-05-02T06:58:07;19.70;;;12.57;;
4182;SDS011;2105;52.300;9.182;2023-05-02T07:00:34;26.37;;;12.47;;
4182;SDS011;2105;52.300;9.182;2023-05-02T07:03:00;20.80;;;12.97;;
4182;SDS011;2105;52.300;9.182;2023-05-02T07:05:28;27.43;;;11.53;;
4182;SDS011;2105;52.300;9.182;2023-05-02T07:07:56;30.23;;;12.60;;
4182;SDS011;2105;52.300;9.182;2023-05-02T07:10:22;29.07;;;12.63;;
4182;SDS011;2105;52.300;9.182;2023-05-02T07:12:49;23.90;;;13.23;;
4182;SDS011;2105;52.300;9.182;2023-05-02T07:15:19;32.17;;;12.70;;
4182;SDS011;2105;52.300;9.182;2023-05-02T07:17:46;26.37;;;12.30;;
4182;SDS011;2105;52.300;9.182;2023-05-02T07:20:13;19.67;;;12.23;;
4182;SDS011;2105;52.300;9.182;2023-05-02T07:22:42;23.20;;;13.20;;
4182;SDS011;2105;52.300;9.182;2023-05-02T07:25:10;23.43;;;12.50;;
4182;SDS011;2105;52.300;9.182;2023-05-02T07:27:37;34.77;;;13.37;;
4182;SDS011;2105;52.300;9.182;2023-05-02T07:30:05;28.70;;;12.87;;
4182;SDS011;2105;52.300;9.182;2023-05-02T07:32:32;35.20;;;15.60;;
4182;SDS011;2105;52.300;9.182;2023-05-02T07:34:59;19.13;;;12.73;;
4182;SDS011;2105;52.300;9.182;2023-05-02T07:37:30;21.47;;;12.50;;
4182;SDS011;2105;52.300;9.182;2023-05-02T07:39:58;24.90;;;12.77;;
4182;SDS011;2105;52.300;9.182;2023-05-02T07:42:29;20.53;;;12.10;;
4182;SDS011;2105;52.300;9.182;2023-05-02T07:44:55;18.70;;;12.40;;
4182;SDS011;2105;52.300;9.182;2023-05-02T07:47:23;23.93;;;12.30;;
4182;SDS011;2105;52.300;9.182;2023-05-02T07:49:51;23.07;;;12.13;;
4182;SDS011;2105;52.300;9.182;2023-05-02T07:52:21;28.93;;;12.63;;
4182;SDS011;2105;52.300;9.182;2023-05-02T07:54:48;29.40;;;11.40;;
4182;SDS011;2105;52.300;9.182;2023-05-02T07:57:16;27.40;;;12.40;;
4182;SDS011;2105;52.300;9.182;2023-05-02T07:59:47;19.03;;;11.00;;
4182;SDS011;2105;52.300;9.182;2023-05-02T08:02:14;33.93;;;11.90;;
4182;SDS011;2105;52.300;9.182;2023-05-02T08:04:50;30.73;;;11.33;;
4182;SDS011;2105;52.300;9.182;2023-05-02T08:07:19;24.57;;;12.07;;
4182;SDS011;2105;52.300;9.182;2023-05-02T08:09:45;26.33;;;12.10;;
4182;SDS011;2105;52.300;9.182;2023-05-02T08:12:20;33.40;;;13.80;;
4182;SDS011;2105;52.300;9.182;2023-05-02T08:14:56;21.33;;;12.57;;
4182;SDS011;2105;52.300;9.182;2023-05-02T08:17:36;23.73;;;13.03;;
4182;SDS011;2105;52.300;9.182;2023-05-02T08:20:04;23.43;;;12.60;;
4182;SDS011;2105;52.300;9.182;2023-05-02T08:22:32;21.90;;;12.70;;
4182;SDS011;2105;52.300;9.182;2023-05-02T08:24:59;26.53;;;13.23;;
4182;SDS011;2105;52.300;9.182;2023-05-02T08:27:26;26.17;;;12.43;;
4182;SDS011;2105;52.300;9.182;2023-05-02T08:29:54;23.23;;;11.53;;
4182;SDS011;2105;52.300;9.182;2023-05-02T08:32:23;23.73;;;12.00;;
4182;SDS011;2105;52.300;9.182;2023-05-02T08:34:53;24.27;;;11.70;;
4182;SDS011;2105;52.300;9.182;2023-05-02T08:37:20;30.63;;;11.30;;
4182;SDS011;2105;52.300;9.182;2023-05-02T08:39:50;26.47;;;11.73;;
4182;SDS011;2105;52.300;9.182;2023-05-02T08:42:17;19.20;;;10.60;;
4182;SDS011;2105;52.300;9.182;2023-05-02T08:44:44;24.70;;;10.67;;
4182;SDS011;2105;52.300;9.182;2023-05-02T08:47:13;19.13;;;11.73;;
4182;SDS011;2105;52.300;9.182;2023-05-02T08:49:41;13.30;;;10.30;;
4182;SDS011;2105;52.300;9.182;2023-05-02T08:52:10;25.47;;;11.80;;
4182;SDS011;2105;52.300;9.182;2023-05-02T08:54:39;30.33;;;12.57;;
4182;SDS011;2105;52.300;9.182;2023-05-02T08:57:07;22.63;;;11.30;;
4182;SDS011;2105;52.300;9.182;2023-05-02T08:59:34;21.40;;;10.77;;
4182;SDS011;2105;52.300;9.182;2023-05-02T09:02:03;29.73;;;11.23;;
4182;SDS011;2105;52.300;9.182;2023-05-02T09:04:38;15.47;;;10.47;;
4182;SDS011;2105;52.300;9.182;2023-05-02T09:07:07;17.67;;;10.30;;
4182;SDS011;2105;52.300;9.182;2023-05-02T09:09:34;24.17;;;10.43;;
4182;SDS011;2105;52.300;9.182;2023-05-02T09:12:03;23.83;;;11.40;;
4182;SDS011;2105;52.300;9.182;2023-05-02T09:14:30;20.30;;;11.53;;
4182;SDS011;2105;52.300;9.182;2023-05-02T09:16:59;19.97;;;12.33;;
4182;SDS011;2105;52.300;9.182;2023-05-02T09:19:27;21.57;;;10.63;;
4182;SDS011;2105;52.300;9.182;2023-05-02T09:21:59;18.30;;;12.13;;
4182;SDS011;2105;52.300;9.182;2023-05-02T09:24:27;19.13;;;11.43;;
4182;SDS011;2105;52.300;9.182;2023-05-02T09:26:58;32.87;;;12.33;;
4182;SDS011;2105;52.300;9.182;2023-05-02T09:29:26;17.93;;;12.57;;
4182;SDS011;2105;52.300;9.182;2023-05-02T09:31:59;21.17;;;11.37;;
4182;SDS011;2105;52.300;9.182;2023-05-02T09:34:27;25.33;;;11.30;;
4182;SDS011;2105;52.300;9.182;2023-05-02T09:36:55;17.87;;;11.53;;
4182;SDS011;2105;52.300;9.182;2023-05-02T09:39:24;19.90;;;11.90;;
4182;SDS011;2105;52.300;9.182;2023-05-02T09:41:57;23.40;;;11.50;;
4182;SDS011;2105;52.300;9.182;2023-05-02T09:44:34;19.93;;;11.60;;
4182;SDS011;2105;52.300;9.182;2023-05-02T09:47:03;20.00;;;11.03;;
4182;SDS011;2105;52.300;9.182;2023-05-02T09:49:40;21.53;;;11.40;;
4182;SDS011;2105;52.300;9.182;2023-05-02T09:52:09;23.33;;;12.03;;
4182;SDS011;2105;52.300;9.182;2023-05-02T09:54:38;35.57;;;12.40;;
4182;SDS011;2105;52.300;9.182;2023-05-02T09:57:05;14.20;;;11.17;;
4182;SDS011;2105;52.300;9.182;2023-05-02T09:59:32;16.90;;;11.77;;
4182;SDS011;2105;52.300;9.182;2023-05-02T10:02:00;15.50;;;11.47;;
4182;SDS011;2105;52.300;9.182;2023-05-02T10:04:29;23.57;;;11.60;;
4182;SDS011;2105;52.300;9.182;2023-05-02T10:06:56;13.80;;;11.00;;
4182;SDS011;2105;52.300;9.182;2023-05-02T10:09:24;17.90;;;11.57;;
4182;SDS011;2105;52.300;9.182;2023-05-02T10:11:54;20.20;;;11.90;;
4182;SDS011;2105;52.300;9.182;2023-05-02T10:14:24;16.37;;;12.13;;
4182;SDS011;2105;52.300;9.182;2023-05-02T10:16:54;13.60;;;12.13;;
4182;SDS011;2105;52.300;9.182;2023-05-02T10:19:28;22.83;;;13.30;;
4182;SDS011;2105;52.300;9.182;2023-05-02T10:21:58;19.47;;;12.50;;
4182;SDS011;2105;52.300;9.182;2023-05-02T10:24:26;15.07;;;12.37;;
4182;SDS011;2105;52.300;9.182;2023-05-02T10:26:55;13.43;;;12.03;;
4182;SDS011;2105;52.300;9.182;2023-05-02T10:29:22;15.57;;;11.93;;
4182;SDS011;2105;52.300;9.182;2023-05-02T10:31:50;20.50;;;12.10;;
4182;SDS011;2105;52.300;9.182;2023-05-02T10:34:18;13.57;;;11.60;;
4182;SDS011;2105;52.300;9.182;2023-05-02T10:36:45;16.90;;;12.53;;
4182;SDS011;2105;52.300;9.182;2023-05-02T10:39:12;15.47;;;12.33;;
4182;SDS011;2105;52.300;9.182;2023-05-02T10:41:40;22.90;;;13.07;;
4182;SDS011;2105;52.300;9.182;2023-05-02T10:44:08;16.73;;;13.27;;
4182;SDS011;2105;52.300;9.182;2023-05-02T10:46:36;15.37;;;13.27;;
4182;SDS011;2105;52.300;9.182;2023-05-02T10:49:05;15.17;;;12.90;;
4182;SDS011;2105;52.300;9.182;2023-05-02T10:51:33;20.37;;;12.80;;
4182;SDS011;2105;52.300;9.182;2023-05-02T10:54:17;18.83;;;13.30;;
4182;SDS011;2105;52.300;9.182;2023-05-02T10:57:00;17.60;;;12.90;;
4182;SDS011;2105;52.300;9.182;2023-05-02T10:59:34;22.73;;;13.70;;
4182;SDS011;2105;52.300;9.182;2023-05-02T11:02:02;21.80;;;13.00;;
4182;SDS011;2105;52.300;9.182;2023-05-02T11:07:29;21.10;;;14.10;;
4182;SDS011;2105;52.300;9.182;2023-05-02T11:12:50;22.77;;;13.43;;
4182;SDS011;2105;52.300;9.182;2023-05-02T11:18:16;19.93;;;13.17;;
4182;SDS011;2105;52.300;9.182;2023-05-02T11:20:43;17.60;;;14.67;;
4182;SDS011;2105;52.300;9.182;2023-05-02T11:23:22;19.13;;;13.60;;
4182;SDS011;2105;52.300;9.182;2023-05-02T11:25:51;16.60;;;13.60;;
4182;SDS011;2105;52.300;9.182;2023-05-02T11:28:39;14.67;;;13.13;;
4182;SDS011;2105;52.300;9.182;2023-05-02T11:31:09;17.27;;;13.93;;
4182;SDS011;2105;52.300;9.182;2023-05-02T11:34:43;17.03;;;15.20;;
4182;SDS011;2105;52.300;9.182;2023-05-02T11:37:10;22.63;;;17.00;;
4182;SDS011;2105;52.300;9.182;2023-05-02T11:39:39;20.60;;;17.60;;
4182;SDS011;2105;52.300;9.182;2023-05-02T11:42:06;24.77;;;17.73;;
4182;SDS011;2105;52.300;9.182;2023-05-02T11:47:23;20.40;;;18.50;;
4182;SDS011;2105;52.300;9.182;2023-05-02T11:49:53;29.90;;;19.53;;
4182;SDS011;2105;52.300;9.182;2023-05-02T11:52:20;20.30;;;18.33;;
4182;SDS011;2105;52.300;9.182;2023-05-02T11:54:48;19.37;;;17.23;;
4182;SDS011;2105;52.300;9.182;2023-05-02T11:57:14;21.37;;;17.50;;
4182;SDS011;2105;52.300;9.182;2023-05-02T11:59:48;19.00;;;17.30;;
4182;SDS011;2105;52.300;9.182;2023-05-02T12:02:15;20.73;;;18.60;;
4182;SDS011;2105;52.300;9.182;2023-05-02T12:04:45;20.27;;;17.80;;
4182;SDS011;2105;52.300;9.182;2023-05-02T12:07:13;18.10;;;16.17;;
4182;SDS011;2105;52.300;9.182;2023-05-02T12:09:49;19.20;;;17.20;;
4182;SDS011;2105;52.300;9.182;2023-05-02T12:12:18;20.63;;;17.13;;
4182;SDS011;2105;52.300;9.182;2023-05-02T12:14:45;19.70;;;16.87;;
4182;SDS011;2105;52.300;9.182;2023-05-02T12:17:12;20.90;;;17.63;;
4182;SDS011;2105;52.300;9.182;2023-05-02T12:19:39;19.50;;;17.57;;
4182;SDS011;2105;52.300;9.182;2023-05-02T12:22:06;19.97;;;17.90;;
4182;SDS011;2105;52.300;9.182;2023-05-02T12:24:36;18.30;;;16.80;;
4182;SDS011;2105;52.300;9.182;2023-05-02T12:27:08;19.13;;;17.37;;
4182;SDS011;2105;52.300;9.182;2023-05-02T12:29:36;19.03;;;17.03;;
4182;SDS011;2105;52.300;9.182;2023-05-02T12:32:04;19.40;;;17.47;;
4182;SDS011;2105;52.300;9.182;2023-05-02T12:34:31;18.87;;;17.00;;
4182;SDS011;2105;52.300;9.182;2023-05-02T12:36:58;19.40;;;17.50;;
4182;SDS011;2105;52.300;9.182;2023-05-02T12:39:33;19.90;;;17.97;;
4182;SDS011;2105;52.300;9.182;2023-05-02T12:42:08;26.80;;;18.50;;
4182;SDS011;2105;52.300;9.182;2023-05-02T12:44:36;20.23;;;18.33;;
4182;SDS011;2105;52.300;9.182;2023-05-02T12:47:04;19.40;;;17.60;;
4182;SDS011;2105;52.300;9.182;2023-05-02T12:49:32;19.03;;;17.30;;
4182;SDS011;2105;52.300;9.182;2023-05-02T12:52:14;19.33;;;17.33;;
4182;SDS011;2105;52.300;9.182;2023-05-02T12:54:42;21.40;;;16.63;;
4182;SDS011;2105;52.300;9.182;2023-05-02T12:57:09;19.13;;;16.57;;
4182;SDS011;2105;52.300;9.182;2023-05-02T12:59:47;25.30;;;15.87;;
4182;SDS011;2105;52.300;9.182;2023-05-02T13:02:16;30.10;;;16.43;;
4182;SDS011;2105;52.300;9.182;2023-05-02T13:04:44;24.70;;;15.67;;
4182;SDS011;2105;52.300;9.182;2023-05-02T13:07:11;23.47;;;15.57;;
4182;SDS011;2105;52.300;9.182;2023-05-02T13:09:38;19.90;;;15.70;;
4182;SDS011;2105;52.300;9.182;2023-05-02T13:12:06;22.80;;;15.50;;
4182;SDS011;2105;52.300;9.182;2023-05-02T13:14:33;17.07;;;15.50;;
4182;SDS011;2105;52.300;9.182;2023-05-02T13:17:00;17.43;;;15.67;;
4182;SDS011;2105;52.300;9.182;2023-05-02T13:19:27;18.43;;;15.83;;
4182;SDS011;2105;52.300;9.182;2023-05-02T13:21:55;17.37;;;15.60;;
4182;SDS011;2105;52.300;9.182;2023-05-02T13:24:22;17.07;;;15.40;;
4182;SDS011;2105;52.300;9.182;2023-05-02T13:26:49;20.73;;;15.50;;
4182;SDS011;2105;52.300;9.182;2023-05-02T13:29:17;17.40;;;15.60;;
4182;SDS011;2105;52.300;9.182;2023-05-02T13:31:44;17.57;;;15.80;;
4182;SDS011;2105;52.300;9.182;2023-05-02T13:34:10;20.63;;;15.93;;
4182;SDS011;2105;52.300;9.182;2023-05-02T13:36:37;17.77;;;16.00;;
4182;SDS011;2105;52.300;9.182;2023-05-02T13:39:09;20.83;;;16.40;;
4182;SDS011;2105;52.300;9.182;2023-05-02T13:41:36;22.20;;;17.17;;
4182;SDS011;2105;52.300;9.182;2023-05-02T13:44:03;18.93;;;16.93;;
4182;SDS011;2105;52.300;9.182;2023-05-02T13:46:31;18.57;;;16.60;;
4182;SDS011;2105;52.300;9.182;2023-05-02T13:49:01;16.73;;;15.33;;
4182;SDS011;2105;52.300;9.182;2023-05-02T13:51:28;22.40;;;17.53;;
4182;SDS011;2105;52.300;9.182;2023-05-02T13:53:55;17.50;;;15.70;;
4182;SDS011;2105;52.300;9.182;2023-05-02T13:56:22;17.23;;;15.73;;
4182;SDS011;2105;52.300;9.182;2023-05-02T13:58:48;17.50;;;15.13;;
4182;SDS011;2105;52.300;9.182;2023-05-02T14:01:15;16.40;;;15.10;;
4182;SDS011;2105;52.300;9.182;2023-05-02T14:03:43;17.30;;;16.00;;
4182;SDS011;2105;52.300;9.182;2023-05-02T14:06:10;18.03;;;16.33;;
4182;SDS011;2105;52.300;9.182;2023-05-02T14:08:37;16.83;;;15.43;;
4182;SDS011;2105;52.300;9.182;2023-05-02T14:11:03;16.87;;;15.30;;
4182;SDS011;2105;52.300;9.182;2023-05-02T14:13:30;16.87;;;15.30;;
4182;SDS011;2105;52.300;9.182;2023-05-02T14:15:57;17.90;;;15.90;;
4182;SDS011;2105;52.300;9.182;2023-05-02T14:18:24;16.83;;;15.30;;
4182;SDS011;2105;52.300;9.182;2023-05-02T14:20:52;16.63;;;15.33;;
4182;SDS011;2105;52.300;9.182;2023-05-02T14:23:20;17.93;;;16.03;;
4182;SDS011;2105;52.300;9.182;2023-05-02T14:25:47;16.60;;;15.40;;
4182;SDS011;2105;52.300;9.182;2023-05-02T14:28:13;18.00;;;15.93;;
4182;SDS011;2105;52.300;9.182;2023-05-02T14:30:40;16.90;;;15.10;;
4182;SDS011;2105;52.300;9.182;2023-05-02T14:33:07;16.00;;;14.70;;
4182;SDS011;2105;52.300;9.182;2023-05-02T14:35:34;16.77;;;15.27;;
4182;SDS011;2105;52.300;9.182;2023-05-02T14:38:02;17.17;;;15.77;;
4182;SDS011;2105;52.300;9.182;2023-05-02T14:40:28;16.20;;;14.93;;
4182;SDS011;2105;52.300;9.182;2023-05-02T14:42:55;17.93;;;14.97;;
4182;SDS011;2105;52.300;9.182;2023-05-02T14:45:22;16.07;;;14.77;;
4182;SDS011;2105;52.300;9.182;2023-05-02T14:47:49;16.80;;;15.33;;
4182;SDS011;2105;52.300;9.182;2023-05-02T14:50:16;16.10;;;14.80;;
4182;SDS011;2105;52.300;9.182;2023-05-02T14:52:43;16.60;;;15.20;;
4182;SDS011;2105;52.300;9.182;2023-05-02T14:55:12;17.13;;;15.57;;
4182;SDS011;2105;52.300;9.182;2023-05-02T14:57:40;18.40;;;15.80;;
4182;SDS011;2105;52.300;9.182;2023-05-02T15:00:07;17.20;;;15.80;;
4182;SDS011;2105;52.300;9.182;2023-05-02T15:02:34;17.20;;;15.67;;
4182;SDS011;2105;52.300;9.182;2023-05-02T15:05:01;17.07;;;15.47;;
4182;SDS011;2105;52.300;9.182;2023-05-02T15:07:29;22.90;;;16.20;;
4182;SDS011;2105;52.300;9.182;2023-05-02T15:09:56;16.83;;;15.10;;